createdAt,value
2019-01-28T00:01:21.059Z,4.20
2019-01-28T00:03:49.410Z,4.20
2019-01-28T00:06:17.061Z,4.30
2019-01-28T00:08:44.640Z,4.20
2019-01-28T00:11:12.380Z,4.20
2019-01-28T00:14:11.932Z,4.10
2019-01-28T00:19:33.810Z,4.10
2019-01-28T00:22:01.301Z,4.00
2019-01-28T00:24:29.119Z,3.80
2019-01-28T00:26:57.032Z,3.80
2019-01-28T00:29:24.795Z,3.80
2019-01-28T00:31:52.395Z,3.80
2019-01-28T00:34:20.004Z,3.90
2019-01-28T00:36:47.834Z,3.90
2019-01-28T00:39:16.878Z,3.80
2019-01-28T00:41:44.475Z,3.80
2019-01-28T00:44:11.976Z,3.70
2019-01-28T00:46:39.664Z,3.80
2019-01-28T00:49:07.324Z,3.70
2019-01-28T00:51:35.425Z,3.70
2019-01-28T00:54:03.172Z,3.70
2019-01-28T00:56:30.842Z,3.80
2019-01-28T00:58:58.546Z,3.80
2019-01-28T01:01:26.185Z,3.70
2019-01-28T01:03:54.340Z,3.70
2019-01-28T01:06:21.924Z,3.70
2019-01-28T01:08:49.604Z,3.70
2019-01-28T01:11:17.512Z,3.60
2019-01-28T01:13:45.225Z,3.60
2019-01-28T01:16:12.892Z,3.70
2019-01-28T01:18:40.694Z,3.80
2019-01-28T01:21:08.375Z,3.80
2019-01-28T01:23:36.060Z,3.80
2019-01-28T01:26:03.707Z,3.70
2019-01-28T01:28:31.272Z,3.70
2019-01-28T01:30:58.869Z,3.60
2019-01-28T01:33:26.376Z,3.50
2019-01-28T01:35:54.036Z,3.50
2019-01-28T01:38:21.602Z,3.40
2019-01-28T01:40:49.258Z,3.50
2019-01-28T01:43:16.909Z,3.50
2019-01-28T01:45:44.488Z,3.60
2019-01-28T01:48:11.983Z,3.60
2019-01-28T01:50:40.256Z,3.50
2019-01-28T01:53:07.760Z,3.50
2019-01-28T01:55:35.691Z,3.50
2019-01-28T01:58:03.592Z,3.40
2019-01-28T02:00:31.171Z,3.50
2019-01-28T02:02:59.016Z,3.40
2019-01-28T02:05:26.561Z,3.40
2019-01-28T02:07:54.252Z,3.40
2019-01-28T02:10:22.023Z,3.40
2019-01-28T02:12:49.644Z,3.30
2019-01-28T02:15:18.262Z,3.30
2019-01-28T02:17:46.437Z,3.30
2019-01-28T02:20:14.809Z,3.30
2019-01-28T02:22:42.584Z,3.20
2019-01-28T02:25:10.805Z,3.30
2019-01-28T02:27:38.621Z,3.20
2019-01-28T02:30:07.517Z,3.20
2019-01-28T02:32:35.409Z,3.10
2019-01-28T02:35:03.969Z,3.10
2019-01-28T02:37:31.737Z,3.10
2019-01-28T02:39:59.215Z,3.10
2019-01-28T02:42:26.812Z,3.00
2019-01-28T02:44:54.433Z,3.00
2019-01-28T02:47:22.153Z,3.00
2019-01-28T02:49:49.710Z,2.90
2019-01-28T02:52:17.245Z,2.80
2019-01-28T02:54:45.346Z,2.80
2019-01-28T02:57:13.146Z,2.80
2019-01-28T02:59:40.997Z,2.70
2019-01-28T03:02:08.685Z,2.70
2019-01-28T03:04:36.196Z,2.80
2019-01-28T03:07:03.872Z,2.70
2019-01-28T03:09:31.811Z,2.70
2019-01-28T03:11:59.361Z,2.80
2019-01-28T03:14:27.010Z,2.80
2019-01-28T03:16:56.453Z,2.90
2019-01-28T03:19:24.225Z,2.80
2019-01-28T03:21:51.761Z,2.80
2019-01-28T03:24:19.416Z,2.80
2019-01-28T03:26:46.923Z,2.80
2019-01-28T03:29:14.602Z,2.90
2019-01-28T03:31:42.306Z,2.90
2019-01-28T03:34:09.876Z,2.80
2019-01-28T03:36:37.381Z,2.80
2019-01-28T03:39:06.896Z,2.80
2019-01-28T03:41:34.577Z,2.80
2019-01-28T03:44:02.201Z,2.80
2019-01-28T03:46:29.708Z,2.90
2019-01-28T03:48:57.211Z,3.00
2019-01-28T03:51:24.745Z,3.10
2019-01-28T03:53:52.396Z,3.10
2019-01-28T03:56:20.332Z,3.10
2019-01-28T03:58:47.941Z,3.00
2019-01-28T04:01:15.803Z,3.00
2019-01-28T04:03:43.430Z,3.10
2019-01-28T04:06:10.918Z,3.10
2019-01-28T04:08:38.785Z,3.00
2019-01-28T04:11:06.345Z,2.90
2019-01-28T04:13:33.963Z,2.80
2019-01-28T04:16:01.485Z,2.90
2019-01-28T04:18:29.154Z,3.00
2019-01-28T04:20:56.690Z,3.00
2019-01-28T04:23:24.208Z,3.00
2019-01-28T04:25:52.071Z,3.10
2019-01-28T04:28:19.639Z,3.00
2019-01-28T04:30:47.320Z,2.90
2019-01-28T04:33:15.461Z,3.00
2019-01-28T04:35:43.031Z,2.90
2019-01-28T04:38:10.582Z,2.90
2019-01-28T04:40:38.089Z,2.80
2019-01-28T04:43:05.784Z,2.80
2019-01-28T04:45:33.450Z,2.90
2019-01-28T04:48:01.020Z,2.80
2019-01-28T04:50:28.769Z,2.90
2019-01-28T04:52:57.571Z,2.80
2019-01-28T04:55:25.053Z,2.80
2019-01-28T04:57:52.679Z,2.80
2019-01-28T05:00:22.733Z,3.00
2019-01-28T05:02:50.311Z,2.90
2019-01-28T05:05:18.487Z,2.90
2019-01-28T05:07:46.125Z,2.90
2019-01-28T05:10:14.884Z,2.90
2019-01-28T05:12:42.419Z,2.90
2019-01-28T05:15:10.976Z,2.90
2019-01-28T05:17:38.682Z,2.90
2019-01-28T05:20:09.135Z,2.90
2019-01-28T05:22:36.849Z,2.80
2019-01-28T05:25:05.937Z,2.90
2019-01-28T05:27:33.488Z,2.90
2019-01-28T05:30:01.057Z,2.90
2019-01-28T05:32:28.861Z,2.90
2019-01-28T05:34:56.525Z,2.90
2019-01-28T05:37:24.179Z,3.00
2019-01-28T05:39:51.866Z,2.90
2019-01-28T05:42:19.544Z,3.00
2019-01-28T05:44:47.089Z,2.90
2019-01-28T05:47:14.780Z,2.80
2019-01-28T05:49:42.400Z,2.80
2019-01-28T05:52:09.976Z,2.80
2019-01-28T05:54:37.729Z,2.70
2019-01-28T05:57:05.335Z,2.80
2019-01-28T05:59:33.053Z,2.80
2019-01-28T06:02:00.631Z,2.80
2019-01-28T06:04:28.744Z,2.70
2019-01-28T06:06:56.693Z,2.80
2019-01-28T06:09:24.284Z,2.90
2019-01-28T06:11:51.807Z,2.90
2019-01-28T06:14:19.363Z,2.80
2019-01-28T06:16:47.071Z,2.90
2019-01-28T06:19:14.680Z,2.80
2019-01-28T06:21:42.310Z,2.70
2019-01-28T06:24:10.262Z,2.70
2019-01-28T06:26:37.918Z,2.70
2019-01-28T06:29:05.639Z,2.70
2019-01-28T06:31:33.205Z,2.60
2019-01-28T06:34:00.840Z,2.70
2019-01-28T06:36:29.071Z,2.60
2019-01-28T06:38:56.670Z,2.60
2019-01-28T06:41:24.296Z,2.70
2019-01-28T06:43:51.820Z,2.80
2019-01-28T06:46:19.388Z,2.80
2019-01-28T06:48:47.196Z,2.80
2019-01-28T06:51:14.997Z,2.70
2019-01-28T06:53:42.682Z,2.70
2019-01-28T06:56:11.513Z,2.70
2019-01-28T06:58:39.084Z,2.70
2019-01-28T07:01:07.058Z,2.80
2019-01-28T07:03:34.953Z,2.80
2019-01-28T07:06:02.760Z,2.80
2019-01-28T07:08:30.866Z,2.80
2019-01-28T07:11:08.869Z,2.70
2019-01-28T07:13:41.085Z,2.80
2019-01-28T07:16:24.804Z,2.80
2019-01-28T07:18:53.264Z,2.80
2019-01-28T07:21:20.967Z,2.90
2019-01-28T07:23:48.845Z,2.90
2019-01-28T07:26:16.433Z,3.00
2019-01-28T07:28:49.176Z,3.00
2019-01-28T07:31:16.907Z,3.10
2019-01-28T07:33:46.484Z,3.00
2019-01-28T07:49:56.684Z,3.10
2019-01-28T07:52:35.852Z,3.10
2019-01-28T07:56:09.008Z,3.10
2019-01-28T07:58:49.280Z,3.10
2019-01-28T08:02:12.483Z,3.00
2019-01-28T08:04:41.476Z,3.00
2019-01-28T08:13:59.403Z,3.20
2019-01-28T08:16:31.705Z,3.20
2019-01-28T08:19:34.834Z,3.30
2019-01-28T08:22:15.637Z,3.40
2019-01-28T08:24:45.956Z,3.30
2019-01-28T08:27:25.377Z,3.40
2019-01-28T08:30:03.434Z,3.50
2019-01-28T08:32:31.064Z,3.70
2019-01-28T08:34:59.010Z,3.80
2019-01-28T08:37:26.633Z,3.80
2019-01-28T08:39:55.688Z,3.90
2019-01-28T08:42:23.552Z,4.00
2019-01-28T08:44:51.208Z,4.20
2019-01-28T08:47:18.779Z,4.20
2019-01-28T08:49:46.363Z,4.30
2019-01-28T08:52:13.876Z,4.40
2019-01-28T08:54:41.522Z,4.60
2019-01-28T08:57:10.171Z,4.70
2019-01-28T08:59:37.689Z,4.70
2019-01-28T09:02:11.796Z,4.70
2019-01-28T09:04:39.461Z,4.70
2019-01-28T09:07:07.052Z,4.60
2019-01-28T09:09:34.511Z,4.50
2019-01-28T09:12:02.116Z,4.60
2019-01-28T09:14:30.170Z,4.60
2019-01-28T09:16:57.668Z,4.70
2019-01-28T09:19:25.140Z,4.60
2019-01-28T09:21:58.707Z,4.70
2019-01-28T09:24:26.180Z,4.80
2019-01-28T09:26:53.956Z,4.80
2019-01-28T09:29:21.438Z,4.80
2019-01-28T09:31:48.926Z,4.90
2019-01-28T09:34:16.409Z,4.90
2019-01-28T09:36:43.945Z,4.80
2019-01-28T09:39:11.528Z,4.80
2019-01-28T09:41:39.706Z,4.80
2019-01-28T09:44:07.378Z,4.70
2019-01-28T09:46:36.551Z,4.70
2019-01-28T09:49:04.315Z,4.70
2019-01-28T09:51:31.967Z,4.70
2019-01-28T09:54:04.005Z,4.70
2019-01-28T09:56:32.110Z,4.80
2019-01-28T09:59:00.455Z,4.90
2019-01-28T10:01:28.085Z,4.90
2019-01-28T10:03:55.737Z,4.90
2019-01-28T10:06:23.352Z,4.90
2019-01-28T10:08:51.125Z,4.80
2019-01-28T10:11:18.638Z,4.90
2019-01-28T10:13:46.160Z,4.90
2019-01-28T10:16:15.649Z,5.10
2019-01-28T10:21:58.851Z,5.00
2019-01-28T10:24:26.376Z,5.10
2019-01-28T10:26:54.153Z,4.90
2019-01-28T10:29:25.413Z,5.00
2019-01-28T10:31:58.733Z,4.90
2019-01-28T10:34:26.376Z,5.00
2019-01-28T10:36:53.947Z,5.00
2019-01-28T10:39:21.687Z,5.00
2019-01-28T10:41:50.657Z,5.00
2019-01-28T10:44:18.194Z,5.00
2019-01-28T10:46:45.710Z,4.90
2019-01-28T10:49:13.690Z,4.90
2019-01-28T10:51:41.538Z,4.80
2019-01-28T10:54:09.084Z,4.90
2019-01-28T10:56:36.541Z,4.90
2019-01-28T10:59:07.005Z,4.90
2019-01-28T11:01:34.498Z,4.90
2019-01-28T11:04:02.037Z,4.90
2019-01-28T11:06:29.717Z,4.90
2019-01-28T11:08:59.092Z,4.80
2019-01-28T11:11:27.182Z,4.80
2019-01-28T11:14:09.986Z,4.70
2019-01-28T11:16:37.532Z,4.60
2019-01-28T11:19:15.328Z,4.50
2019-01-28T11:21:42.936Z,4.40
2019-01-28T11:24:12.169Z,4.40
2019-01-28T11:26:45.418Z,4.40
2019-01-28T11:29:18.000Z,4.40
2019-01-28T11:31:58.479Z,4.40
2019-01-28T11:34:50.090Z,4.50
2019-01-28T12:11:51.163Z,4.80
2019-01-28T12:16:03.942Z,4.90
2019-01-28T12:18:38.074Z,4.90
2019-01-28T12:21:17.078Z,4.90
2019-01-28T12:24:02.506Z,5.00
2019-01-28T12:30:13.329Z,4.90
2019-01-28T12:33:20.389Z,5.00
2019-01-28T12:36:31.205Z,5.10
2019-01-28T12:42:36.756Z,5.10
2019-01-28T12:45:27.965Z,5.10
2019-01-28T12:48:10.838Z,5.10
2019-01-28T13:07:18.446Z,4.80
2019-01-28T13:10:49.932Z,4.70
2019-01-28T13:17:57.903Z,4.60
2019-01-28T13:29:03.051Z,4.30
2019-01-28T13:54:02.042Z,4.20
2019-01-28T14:06:05.973Z,3.80
2019-01-28T14:08:40.971Z,3.90
2019-01-28T14:11:10.204Z,3.90
2019-01-28T14:13:42.042Z,3.90
2019-01-28T14:16:10.702Z,3.90
2019-01-28T14:18:47.571Z,3.80
2019-01-28T14:21:20.590Z,3.70
2019-01-28T14:23:53.971Z,3.70
2019-01-28T14:26:22.293Z,3.60
2019-01-28T14:29:18.906Z,3.60
2019-01-28T14:31:54.490Z,3.50
2019-01-28T14:34:26.591Z,3.50
2019-01-28T14:37:01.139Z,3.50
2019-01-28T14:39:29.095Z,3.50
2019-01-28T14:42:04.220Z,3.40
2019-01-28T14:44:35.140Z,3.50
2019-01-28T14:47:03.034Z,3.40
2019-01-28T14:49:41.567Z,3.40
2019-01-28T14:52:20.912Z,3.20
2019-01-28T14:54:58.269Z,3.30
2019-01-28T14:57:40.062Z,3.40
2019-01-28T15:00:27.015Z,3.40
2019-01-28T15:03:01.830Z,3.30
2019-01-28T15:05:34.398Z,3.40
2019-01-28T15:08:05.463Z,3.30
2019-01-28T15:10:38.573Z,3.30
2019-01-28T15:13:13.982Z,3.30
2019-01-28T15:15:49.011Z,3.30
2019-01-28T15:18:32.915Z,3.20
2019-01-28T15:21:28.167Z,3.30
2019-01-28T15:23:58.043Z,3.30
2019-01-28T15:26:25.787Z,3.30
2019-01-28T15:28:53.855Z,3.30
2019-01-28T15:31:22.363Z,3.30
2019-01-28T15:33:55.038Z,3.20
2019-01-28T15:36:24.888Z,3.20
2019-01-28T15:39:02.240Z,3.20
2019-01-28T15:41:33.100Z,3.10
2019-01-28T15:44:20.246Z,3.20
2019-01-28T15:47:08.483Z,3.20
2019-01-28T15:49:47.805Z,3.20
2019-01-28T15:52:16.188Z,3.20
2019-01-28T15:55:14.509Z,3.10
2019-01-28T15:57:45.130Z,3.20
2019-01-28T16:00:29.737Z,3.10
2019-01-28T16:02:57.509Z,3.10
2019-01-28T16:05:27.803Z,3.00
2019-01-28T16:07:56.111Z,3.00
2019-01-28T16:10:40.322Z,3.10
2019-01-28T16:13:33.450Z,3.20
2019-01-28T16:26:53.184Z,3.00
2019-01-28T16:42:17.141Z,2.90
2019-01-28T16:45:08.358Z,3.00
2019-01-28T16:48:29.839Z,3.00
2019-01-28T17:02:42.122Z,3.00
2019-01-28T17:05:17.245Z,3.00
2019-01-28T17:07:50.012Z,3.00
2019-01-28T17:10:21.947Z,3.00
2019-01-28T17:12:53.173Z,3.00
2019-01-28T17:15:23.708Z,3.00
2019-01-28T17:17:51.456Z,3.00
2019-01-28T17:20:23.710Z,3.00
2019-01-28T17:22:51.372Z,3.00
2019-01-28T17:25:24.790Z,3.00
2019-01-28T17:27:52.332Z,3.10
2019-01-28T17:30:27.239Z,3.00
2019-01-28T17:32:55.089Z,3.10
2019-01-28T17:35:22.756Z,3.00
2019-01-28T17:37:50.344Z,3.00
2019-01-28T17:40:37.986Z,3.00
2019-01-28T17:43:44.973Z,3.00
2019-01-28T17:46:13.153Z,3.10
2019-01-28T17:48:40.922Z,3.10
2019-01-28T17:51:08.646Z,3.10
2019-01-28T17:53:37.133Z,3.10
2019-01-28T17:56:04.992Z,3.10
2019-01-28T17:58:32.559Z,3.00
2019-01-28T18:01:00.786Z,3.00
2019-01-28T18:03:29.269Z,3.10
2019-01-28T18:05:58.572Z,3.10
2019-01-28T18:08:26.385Z,3.10
2019-01-28T18:10:54.054Z,3.00
2019-01-28T18:13:21.923Z,3.10
2019-01-28T18:15:49.920Z,3.10
2019-01-28T18:18:17.738Z,3.10
2019-01-28T18:20:51.526Z,3.10
2019-01-28T18:23:34.806Z,3.10
2019-01-28T18:26:05.189Z,3.00
2019-01-28T18:28:32.827Z,3.00
2019-01-28T18:31:00.417Z,3.00
2019-01-28T18:33:28.503Z,3.00
2019-01-28T18:35:56.027Z,3.00
2019-01-28T18:38:23.632Z,3.00
2019-01-28T18:40:51.334Z,2.90
2019-01-28T18:43:22.559Z,3.10
2019-01-28T18:45:50.080Z,3.10
2019-01-28T18:48:17.767Z,3.10
2019-01-28T18:50:45.588Z,3.00
2019-01-28T18:53:13.175Z,3.00
2019-01-28T18:55:48.084Z,3.00
2019-01-28T18:58:15.667Z,3.00
2019-01-28T19:00:43.248Z,3.00
2019-01-28T19:03:10.921Z,3.10
2019-01-28T19:05:56.807Z,3.00
2019-01-28T19:08:42.933Z,3.00
2019-01-28T19:11:31.753Z,3.00
2019-01-28T19:14:19.464Z,2.90
2019-01-28T19:17:18.838Z,3.00
2019-01-28T19:20:29.653Z,3.00
2019-01-28T19:22:57.533Z,3.00
2019-01-28T19:25:25.261Z,3.10
2019-01-28T19:27:54.336Z,3.20
2019-01-28T19:30:22.743Z,3.20
2019-01-28T19:32:50.680Z,3.20
2019-01-28T19:35:38.139Z,3.20
2019-01-28T19:38:05.998Z,3.20
2019-01-28T19:40:33.707Z,3.20
2019-01-28T19:43:01.845Z,3.20
2019-01-28T19:45:29.730Z,3.30
2019-01-28T19:47:57.612Z,3.30
2019-01-28T19:50:27.143Z,3.20
2019-01-28T19:52:55.476Z,3.30
2019-01-28T19:55:28.277Z,3.30
2019-01-28T19:57:56.142Z,3.30
2019-01-28T20:00:36.491Z,3.30
2019-01-28T20:03:06.992Z,3.20
2019-01-28T20:05:34.710Z,3.20
2019-01-28T20:08:05.395Z,3.20
2019-01-28T20:10:33.457Z,3.30
2019-01-28T20:13:01.590Z,3.30
2019-01-28T20:15:29.218Z,3.30
2019-01-28T20:17:56.690Z,3.30
2019-01-28T20:20:27.060Z,3.40
2019-01-28T20:22:54.617Z,3.40
2019-01-28T20:25:23.108Z,3.40
2019-01-28T20:27:51.336Z,3.50
2019-01-28T20:30:21.240Z,3.50
2019-01-28T20:32:48.904Z,3.50
2019-01-28T20:35:17.740Z,3.50
2019-01-28T20:37:51.858Z,3.40
2019-01-28T20:40:21.556Z,3.50
2019-01-28T20:42:53.871Z,3.50
2019-01-28T20:45:23.020Z,3.40
2019-01-28T20:47:51.440Z,3.30
2019-01-28T20:50:22.438Z,3.30
2019-01-28T20:52:51.781Z,3.30
2019-01-28T20:55:19.861Z,3.40
2019-01-28T20:57:49.927Z,3.50
2019-01-28T21:00:23.215Z,3.50
2019-01-28T21:02:57.249Z,3.40
2019-01-28T21:05:26.082Z,3.40
2019-01-28T21:07:53.822Z,3.30
2019-01-28T21:10:21.700Z,3.30
2019-01-28T21:12:49.703Z,3.30
2019-01-28T21:15:17.386Z,3.20
2019-01-28T21:17:47.540Z,3.30
2019-01-28T21:20:16.755Z,3.20
2019-01-28T21:22:44.420Z,3.20
2019-01-28T21:25:23.801Z,3.20
2019-01-28T21:27:52.056Z,3.20
2019-01-28T21:30:24.544Z,3.20
2019-01-28T21:32:52.809Z,3.10
2019-01-28T21:35:33.780Z,3.20
2019-01-28T21:38:03.917Z,3.20
2019-01-28T21:40:32.461Z,3.20
2019-01-28T21:43:01.022Z,3.20
2019-01-28T21:45:29.432Z,3.10
2019-01-28T21:47:56.997Z,3.10
2019-01-28T21:50:30.249Z,3.10
2019-01-28T21:53:01.694Z,3.00
2019-01-28T21:55:32.662Z,3.10
2019-01-28T21:58:01.210Z,3.10
2019-01-28T22:00:30.252Z,3.00
2019-01-28T22:02:58.903Z,3.00
2019-01-28T22:05:28.022Z,2.90
2019-01-28T22:07:56.243Z,3.00
2019-01-28T22:10:25.970Z,2.80
2019-01-28T22:12:54.098Z,2.80
2019-01-28T22:15:37.319Z,2.80
2019-01-28T22:18:13.841Z,3.00
2019-01-28T22:20:44.709Z,3.00
2019-01-28T22:23:15.005Z,3.00
2019-01-28T22:25:48.995Z,2.90
2019-01-28T22:28:24.549Z,2.90
2019-01-28T22:31:10.581Z,2.80
2019-01-28T22:34:06.567Z,2.80
2019-01-28T22:36:48.613Z,2.80
2019-01-28T22:39:50.392Z,2.80
2019-01-28T22:42:29.075Z,2.70
2019-01-28T22:45:25.343Z,2.70
2019-01-28T22:48:18.926Z,2.70
2019-01-28T22:51:04.169Z,2.80
2019-01-28T22:53:56.289Z,2.80
2019-01-28T22:56:53.024Z,2.60
2019-01-28T22:59:32.698Z,2.70
2019-01-28T23:02:17.313Z,2.60
2019-01-28T23:05:01.702Z,2.60
2019-01-28T23:07:57.838Z,2.60
2019-01-28T23:10:33.942Z,2.50
2019-01-28T23:13:30.774Z,2.50
2019-01-28T23:16:20.074Z,2.50
2019-01-28T23:18:52.645Z,2.60
2019-01-28T23:21:37.950Z,2.60
2019-01-28T23:24:13.889Z,2.70
2019-01-28T23:26:41.749Z,2.80
2019-01-28T23:29:18.300Z,3.00
2019-01-28T23:31:46.228Z,2.90
2019-01-28T23:34:29.442Z,2.90
2019-01-28T23:37:31.216Z,2.90
2019-01-28T23:40:01.034Z,2.80
2019-01-28T23:42:43.192Z,2.70
2019-01-28T23:45:27.417Z,2.70
2019-01-28T23:47:58.772Z,2.70
2019-01-28T23:50:46.767Z,2.70
2019-01-28T23:53:14.745Z,2.70
2019-01-28T23:55:45.927Z,2.70
2019-01-28T23:58:22.822Z,2.60
